TimeMST,TemperatureF,Dew PointF,Humidity,Sea Level PressureIn,VisibilityMPH,Wind Direction,Wind SpeedMPH,Gust SpeedMPH,PrecipitationIn,Events,Conditions,WindDirDegrees,DateUTC
12:51 AM,53.1,27.0,37,29.98,10.0,WNW,17.3,-,N/A,,Mostly Cloudy,290,2014-02-08 07:51:00
1:51 AM,51.1,27.0,39,29.99,10.0,West,12.7,-,N/A,,Scattered Clouds,280,2014-02-08 08:51:00
2:51 AM,51.1,26.1,38,29.99,10.0,West,21.9,-,N/A,,Partly Cloudy,280,2014-02-08 09:51:00
3:51 AM,51.1,26.1,38,29.98,10.0,West,16.1,-,N/A,,Partly Cloudy,280,2014-02-08 10:51:00
4:51 AM,50.0,25.0,38,29.97,10.0,West,18.4,-,N/A,,Partly Cloudy,280,2014-02-08 11:51:00
5:51 AM,50.0,25.0,38,30.00,10.0,West,20.7,-,N/A,,Scattered Clouds,270,2014-02-08 12:51:00
6:51 AM,51.1,24.1,35,30.02,10.0,West,20.7,32.2,N/A,,Mostly Cloudy,270,2014-02-08 13:51:00
7:51 AM,51.1,24.1,35,30.06,10.0,West,18.4,-,N/A,,Scattered Clouds,270,2014-02-08 14:51:00
8:51 AM,48.9,26.1,41,30.08,10.0,South,10.4,-,N/A,,Mostly Cloudy,190,2014-02-08 15:51:00
9:51 AM,57.0,23.0,27,30.08,10.0,West,17.3,24.2,N/A,,Scattered Clouds,270,2014-02-08 16:51:00
10:01 AM,57.2,23.0,27,30.19,10.0,West,17.3,25.3,N/A,,Scattered Clouds,270,2014-02-08 17:01:00
10:51 AM,59.0,19.9,22,30.10,10.0,West,9.2,20.7,N/A,,Mostly Cloudy,270,2014-02-08 17:51:00
11:51 AM,60.1,21.9,23,30.07,10.0,WSW,13.8,21.9,N/A,,Mostly Cloudy,250,2014-02-08 18:51:00
12:51 PM,64.0,19.9,18,30.01,10.0,West,11.5,19.6,N/A,,Scattered Clouds,280,2014-02-08 19:51:00
1:51 PM,66.0,19.9,17,29.98,10.0,WNW,11.5,19.6,N/A,,Partly Cloudy,300,2014-02-08 20:51:00
2:51 PM,66.9,21.0,17,29.98,10.0,West,12.7,-,N/A,,Scattered Clouds,280,2014-02-08 21:51:00
3:51 PM,66.9,21.9,18,29.99,10.0,West,11.5,-,N/A,,Scattered Clouds,280,2014-02-08 22:51:00
4:51 PM,66.0,21.0,18,30.00,10.0,West,8.1,-,N/A,,Mostly Cloudy,270,2014-02-08 23:51:00
5:51 PM,63.0,21.0,20,30.01,10.0,WSW,11.5,-,N/A,,Scattered Clouds,240,2014-02-09 00:51:00
6:51 PM,60.1,21.0,22,30.04,10.0,SW,8.1,-,N/A,,Scattered Clouds,220,2014-02-09 01:51:00
7:51 PM,55.9,21.9,27,30.05,10.0,SSW,4.6,-,N/A,,Scattered Clouds,210,2014-02-09 02:51:00
8:51 PM,53.1,21.9,30,30.07,10.0,SSE,4.6,-,N/A,,Partly Cloudy,160,2014-02-09 03:51:00
9:51 PM,54.0,21.9,29,30.05,10.0,South,6.9,-,N/A,,Partly Cloudy,190,2014-02-09 04:51:00
10:51 PM,53.1,21.0,29,30.05,10.0,South,5.8,-,N/A,,Partly Cloudy,190,2014-02-09 05:51:00
11:51 PM,55.9,19.9,25,30.03,10.0,South,12.7,-,N/A,,Clear,170,2014-02-09 06:51:00